Terminal Aerodrome Forecast
Issued by NWS

Home | Current Version | Previous Version | Text Only | Print | Product List | Glossary On
Versions: 1 2 3 4 5 6 7 8 9 10 11 12 13 14 15 16 17 18 19 20 21 22 23
000
FTUS43 KPAH 180500
TAFCGI
TAF
KCGI 180529Z 1806/1906 05004KT P6SM -RA OVC070
     FM180800 VRB03KT 5SM -RAPL BR SCT006 OVC015
      TEMPO 1808/1812 2SM -SNPL OVC006
     FM181200 05004KT 4SM BR OVC010
      TEMPO 1812/1815 2SM -SNPL OVC005
     FM181800 04004KT P6SM SCT010 OVC030
     FM182300 06003KT P6SM OVC040=

USA.gov is the U.S. government's official web portal to all federal, state and local government web resources and services.